createdAt,value
2023-03-20T00:00:27.624Z,101113.47
2023-03-20T00:03:13.887Z,101105.38
2023-03-20T00:05:59.091Z,101113.22
2023-03-20T00:08:46.040Z,101113.94
2023-03-20T00:11:34.396Z,101113.81
2023-03-20T00:14:21.919Z,101115.16
2023-03-20T00:17:13.680Z,101114.81
2023-03-20T00:19:59.145Z,101113.06
2023-03-20T00:22:44.173Z,101113.72
2023-03-20T00:25:29.564Z,101116.41
2023-03-20T00:28:39.259Z,101113.63
2023-03-20T00:31:42.512Z,101112.84
2023-03-20T00:34:28.936Z,101106.06
2023-03-20T00:37:14.186Z,101111.81
2023-03-20T00:39:59.717Z,101110.88
2023-03-20T00:42:49.222Z,101102.00
2023-03-20T00:45:35.799Z,101098.78
2023-03-20T00:48:21.302Z,101103.00
2023-03-20T00:51:06.880Z,101094.28
2023-03-20T00:53:52.318Z,101100.00
2023-03-20T00:56:44.302Z,101106.34
2023-03-20T00:59:55.056Z,101102.19
2023-03-20T01:02:40.334Z,101107.84
2023-03-20T01:05:26.993Z,101113.22
2023-03-20T01:08:14.803Z,101123.84
2023-03-20T01:11:00.175Z,101127.56
2023-03-20T01:13:45.255Z,101131.44
2023-03-20T01:16:30.890Z,101119.19
2023-03-20T01:19:16.152Z,101114.56
2023-03-20T01:22:01.183Z,101116.03
2023-03-20T01:24:47.323Z,101112.34
2023-03-20T01:27:32.340Z,101111.91
2023-03-20T01:30:24.776Z,101114.38
2023-03-20T01:33:21.045Z,101109.75
2023-03-20T01:36:06.582Z,101109.31
2023-03-20T01:38:57.865Z,101108.78
2023-03-20T01:41:43.134Z,101129.88
2023-03-20T01:44:31.082Z,101119.66
2023-03-20T01:47:22.299Z,101130.81
2023-03-20T01:50:22.339Z,101142.69
2023-03-20T01:53:13.461Z,101142.28
2023-03-20T01:56:00.211Z,101147.69
2023-03-20T01:58:58.249Z,101145.63
2023-03-20T02:01:44.925Z,101154.06
2023-03-20T02:04:38.627Z,101144.31
2023-03-20T02:07:24.519Z,101147.84
2023-03-20T02:10:15.588Z,101152.41
2023-03-20T02:13:03.092Z,101152.66
2023-03-20T02:15:59.799Z,101148.53
2023-03-20T02:18:48.042Z,101148.72
2023-03-20T02:21:55.170Z,101136.72
2023-03-20T02:25:08.855Z,101133.84
2023-03-20T02:28:21.779Z,101136.69
2023-03-20T02:31:25.767Z,101133.78
2023-03-20T02:34:50.949Z,101125.75
2023-03-20T02:37:45.506Z,101113.72
2023-03-20T02:40:39.638Z,101119.53
2023-03-20T02:43:52.843Z,101116.47
2023-03-20T02:46:56.303Z,101119.66
2023-03-20T02:49:53.864Z,101121.03
2023-03-20T02:52:44.195Z,101133.22
2023-03-20T02:55:39.778Z,101122.59
2023-03-20T02:58:46.174Z,101134.25
2023-03-20T03:01:41.208Z,101142.25
2023-03-20T03:04:32.219Z,101138.72
2023-03-20T03:07:20.529Z,101138.03
2023-03-20T03:10:11.463Z,101146.44
2023-03-20T03:13:00.773Z,101144.69
2023-03-20T03:15:50.963Z,101138.38
2023-03-20T03:18:39.491Z,101142.34
2023-03-20T03:21:26.657Z,101148.66
2023-03-20T03:24:40.770Z,101140.16
2023-03-20T03:27:37.119Z,101147.00
2023-03-20T03:30:28.681Z,101140.19
2023-03-20T03:33:21.410Z,101142.00
2023-03-20T03:36:34.332Z,101144.47
2023-03-20T03:39:28.836Z,101146.28
2023-03-20T03:42:26.450Z,101149.81
2023-03-20T03:45:32.661Z,101132.84
2023-03-20T03:48:31.468Z,101136.88
2023-03-20T03:51:22.443Z,101130.34
2023-03-20T03:54:19.711Z,101128.81
2023-03-20T03:57:07.140Z,101134.91
2023-03-20T03:59:53.949Z,101119.75
2023-03-20T04:02:39.421Z,101113.47
2023-03-20T04:05:30.342Z,101110.94
2023-03-20T04:08:15.265Z,101114.22
2023-03-20T04:11:00.921Z,101111.75
2023-03-20T04:13:48.599Z,101119.34
2023-03-20T04:16:33.765Z,101103.63
2023-03-20T04:19:19.140Z,101096.50
2023-03-20T04:22:04.433Z,101089.59
2023-03-20T04:24:49.495Z,101097.47
2023-03-20T04:27:34.956Z,101094.63
2023-03-20T04:30:20.102Z,101100.66
2023-03-20T04:33:05.372Z,101102.31
2023-03-20T04:35:50.831Z,101102.97
2023-03-20T04:38:36.628Z,101104.81
2023-03-20T04:41:21.977Z,101092.63
2023-03-20T04:44:07.428Z,101090.00
2023-03-20T04:46:52.993Z,101080.59
2023-03-20T04:49:38.033Z,101085.50
2023-03-20T04:52:22.973Z,101093.09
2023-03-20T04:55:08.527Z,101099.38
2023-03-20T04:57:53.873Z,101094.09
2023-03-20T05:00:38.605Z,101101.84
2023-03-20T05:03:24.355Z,101097.75
2023-03-20T05:06:09.828Z,101099.38
2023-03-20T05:08:55.629Z,101098.59
2023-03-20T05:11:40.569Z,101103.63
2023-03-20T05:14:25.713Z,101100.16
2023-03-20T05:17:11.141Z,101092.56
2023-03-20T05:19:56.537Z,101095.00
2023-03-20T05:22:41.343Z,101104.28
2023-03-20T05:25:26.869Z,101100.88
2023-03-20T05:28:11.826Z,101105.84
2023-03-20T05:30:57.461Z,101101.66
2023-03-20T05:33:43.445Z,101104.28
2023-03-20T05:36:28.766Z,101110.44
2023-03-20T05:39:14.308Z,101106.03
2023-03-20T05:41:59.775Z,101109.59
2023-03-20T05:44:44.742Z,101109.44
2023-03-20T05:47:29.553Z,101104.41
2023-03-20T05:50:15.272Z,101110.63
2023-03-20T05:53:00.300Z,101111.47
2023-03-20T05:55:45.323Z,101095.91
2023-03-20T05:58:30.473Z,101099.38
2023-03-20T06:01:15.784Z,101093.34
2023-03-20T06:04:01.276Z,101095.09
2023-03-20T06:06:46.643Z,101082.38
2023-03-20T06:09:32.139Z,101090.03
2023-03-20T06:12:16.964Z,101091.91
2023-03-20T06:15:02.622Z,101096.94
2023-03-20T06:17:47.812Z,101098.69
2023-03-20T06:20:33.264Z,101090.09
2023-03-20T06:23:18.636Z,101094.75
2023-03-20T06:26:03.979Z,101100.81
2023-03-20T06:28:49.286Z,101099.00
2023-03-20T06:31:34.566Z,101080.00
2023-03-20T06:34:19.883Z,101083.63
2023-03-20T06:37:05.576Z,101089.69
2023-03-20T06:39:50.903Z,101092.34
2023-03-20T06:42:36.262Z,101093.03
2023-03-20T06:45:22.891Z,101097.38
2023-03-20T06:48:09.327Z,101098.16
2023-03-20T06:50:54.340Z,101090.09
2023-03-20T06:53:39.332Z,101092.25
2023-03-20T06:56:24.803Z,101104.00
2023-03-20T06:59:10.091Z,101103.97
2023-03-20T07:01:55.509Z,101120.28
2023-03-20T07:04:41.225Z,101106.53
2023-03-20T07:07:26.499Z,101101.56
2023-03-20T07:10:11.693Z,101099.00
2023-03-20T07:12:57.101Z,101100.72
2023-03-20T07:15:57.555Z,101117.88
2023-03-20T07:18:51.076Z,101115.13
2023-03-20T07:21:36.767Z,101114.16
2023-03-20T07:24:22.006Z,101108.94
2023-03-20T07:27:07.414Z,101106.75
2023-03-20T07:29:52.714Z,101106.94
2023-03-20T07:32:38.158Z,101120.28
2023-03-20T07:35:23.190Z,101107.13
2023-03-20T07:38:08.687Z,101105.63
2023-03-20T07:40:54.358Z,101104.84
2023-03-20T07:43:39.524Z,101096.81
2023-03-20T07:46:24.512Z,101106.09
2023-03-20T07:49:09.914Z,101104.00
2023-03-20T07:51:55.036Z,101095.59
2023-03-20T07:54:40.603Z,101100.00
2023-03-20T07:57:25.955Z,101110.53
2023-03-20T08:00:11.439Z,101105.50
2023-03-20T08:02:57.207Z,101112.56
2023-03-20T08:05:45.850Z,101116.59
2023-03-20T08:08:32.577Z,101102.91
2023-03-20T08:11:19.330Z,101109.03
2023-03-20T08:14:04.352Z,101100.47
2023-03-20T08:16:59.245Z,101096.56
2023-03-20T08:19:51.510Z,101106.00
2023-03-20T08:22:36.432Z,101107.03
2023-03-20T08:25:21.362Z,101094.25
2023-03-20T08:28:06.352Z,101073.44
2023-03-20T08:30:52.205Z,101081.09
2023-03-20T08:33:37.820Z,101074.50
2023-03-20T08:36:23.874Z,101071.44
2023-03-20T08:39:09.356Z,101068.63
2023-03-20T08:41:54.454Z,101067.66
2023-03-20T08:44:39.785Z,101066.66
2023-03-20T08:47:25.035Z,101064.13
2023-03-20T08:50:11.234Z,101031.63
2023-03-20T08:52:56.538Z,101037.59
2023-03-20T08:55:50.941Z,101032.31
2023-03-20T08:58:36.283Z,101034.56
2023-03-20T09:01:22.053Z,101034.91
2023-03-20T09:04:07.141Z,101019.75
2023-03-20T09:06:52.539Z,101033.91
2023-03-20T09:09:37.408Z,101024.72
2023-03-20T09:12:22.787Z,101027.38
2023-03-20T09:15:08.209Z,101026.91
2023-03-20T09:17:53.098Z,101029.13
2023-03-20T09:20:38.675Z,101020.59
2023-03-20T09:23:24.101Z,101025.44
2023-03-20T09:26:09.482Z,101021.53
2023-03-20T09:28:54.854Z,101013.38
2023-03-20T09:31:39.973Z,100989.44
2023-03-20T09:34:25.140Z,100997.81
2023-03-20T09:37:10.089Z,100978.28
2023-03-20T09:39:55.445Z,100984.06
2023-03-20T09:43:33.094Z,100952.09
2023-03-20T09:46:53.373Z,100929.75
2023-03-20T09:49:47.489Z,100929.03
2023-03-20T09:52:38.456Z,100933.94
2023-03-20T09:55:32.746Z,100953.59
2023-03-20T09:58:26.422Z,100959.03
2023-03-20T10:01:14.010Z,100928.22
2023-03-20T10:04:08.837Z,100941.63
2023-03-20T10:06:54.981Z,100957.88
2023-03-20T10:09:40.291Z,100959.03
2023-03-20T10:12:53.394Z,100946.00
2023-03-20T10:16:05.435Z,100917.69
2023-03-20T10:19:29.458Z,100925.00
2023-03-20T10:22:22.237Z,100928.59
2023-03-20T10:25:22.172Z,100924.72
2023-03-20T10:28:20.606Z,100937.06
2023-03-20T10:31:14.141Z,100934.50
2023-03-20T10:34:17.604Z,100948.50
2023-03-20T10:37:30.749Z,100936.75
2023-03-20T10:40:37.422Z,100933.75
2023-03-20T10:43:38.161Z,100914.09
2023-03-20T10:46:33.209Z,100910.44
2023-03-20T10:49:31.683Z,100926.16
2023-03-20T10:52:20.597Z,100876.66
2023-03-20T10:55:21.901Z,100884.13
2023-03-20T10:58:19.527Z,100876.28
2023-03-20T11:01:05.347Z,100879.16
2023-03-20T11:03:50.517Z,100870.22
2023-03-20T11:06:43.823Z,100878.44
2023-03-20T11:09:28.855Z,100877.06
2023-03-20T11:12:20.299Z,100854.97
2023-03-20T11:15:24.405Z,100858.09
2023-03-20T11:18:16.742Z,100856.38
2023-03-20T11:21:05.068Z,100835.50
2023-03-20T11:23:51.340Z,100856.69
2023-03-20T11:26:40.252Z,100831.25
2023-03-20T11:29:33.167Z,100805.91
2023-03-20T11:32:31.800Z,100810.81
2023-03-20T11:35:17.410Z,100841.81
2023-03-20T11:38:30.613Z,100840.97
2023-03-20T11:41:34.276Z,100818.16
2023-03-20T11:44:34.105Z,100788.22
2023-03-20T11:47:25.211Z,100786.94
2023-03-20T11:50:38.080Z,100753.41
2023-03-20T11:53:28.269Z,100761.22
2023-03-20T11:56:20.730Z,100748.63
2023-03-20T11:59:16.547Z,100745.06
2023-03-20T12:02:05.489Z,100769.59
2023-03-20T12:04:50.530Z,100790.97
2023-03-20T12:07:37.992Z,100762.78
2023-03-20T12:10:30.658Z,100749.69
2023-03-20T12:13:25.915Z,100737.84
2023-03-20T12:16:15.611Z,100734.50
2023-03-20T12:19:09.399Z,100763.44
2023-03-20T12:22:21.149Z,100770.91
2023-03-20T12:25:26.444Z,100799.09
2023-03-20T12:28:18.021Z,100777.44
2023-03-20T12:31:30.463Z,100791.50
2023-03-20T12:34:32.926Z,100834.50
2023-03-20T12:37:18.453Z,100847.16
2023-03-20T12:40:04.233Z,100794.97
2023-03-20T12:42:58.943Z,100828.63
2023-03-20T12:45:58.874Z,100827.66
2023-03-20T12:48:50.953Z,100824.19
2023-03-20T12:51:42.391Z,100836.16
2023-03-20T12:54:44.061Z,100842.88
2023-03-20T12:57:41.786Z,100873.38
2023-03-20T13:00:34.922Z,100847.66
2023-03-20T13:03:31.718Z,100839.94
2023-03-20T13:06:41.570Z,100858.44
2023-03-20T13:09:50.822Z,100857.94
2023-03-20T13:12:46.286Z,100863.69
2023-03-20T13:15:49.963Z,100864.69
2023-03-20T13:19:00.335Z,100878.53
2023-03-20T13:22:05.177Z,100880.69
2023-03-20T13:25:00.721Z,100871.28
2023-03-20T13:27:53.478Z,100874.63
2023-03-20T13:31:02.570Z,100851.75
2023-03-20T13:40:28.772Z,100826.88
2023-03-20T13:43:40.044Z,100821.59
2023-03-20T13:46:29.086Z,100841.50
2023-03-20T13:52:04.287Z,100858.97
2023-03-20T13:55:15.561Z,100835.44
2023-03-20T13:58:19.080Z,100829.28
2023-03-20T14:01:26.210Z,100849.19
2023-03-20T14:04:17.895Z,100830.94
2023-03-20T14:07:34.016Z,100844.97
2023-03-20T14:10:23.163Z,100828.69
2023-03-20T14:13:15.052Z,100829.34
2023-03-20T14:16:09.849Z,100865.03
2023-03-20T14:19:16.988Z,100848.34
2023-03-20T14:22:01.973Z,100851.97
2023-03-20T14:24:54.745Z,100879.53
2023-03-20T14:28:06.572Z,100889.22
2023-03-20T14:31:12.370Z,100910.28
2023-03-20T14:34:08.491Z,100918.31
2023-03-20T14:37:02.902Z,100901.34
2023-03-20T14:40:03.323Z,100910.72
2023-03-20T14:45:47.277Z,100943.09
2023-03-20T14:48:41.258Z,100930.88
2023-03-20T14:51:43.730Z,100956.09
2023-03-20T14:54:30.306Z,100944.78
2023-03-20T14:57:55.659Z,100977.25
2023-03-20T15:00:46.629Z,100963.63
2023-03-20T15:03:32.002Z,100971.94
2023-03-20T15:06:20.950Z,100961.16
2023-03-20T15:09:10.341Z,100952.31
2023-03-20T15:11:57.670Z,100958.97
2023-03-20T15:14:59.367Z,100964.44
2023-03-20T15:17:45.936Z,100946.75
2023-03-20T15:20:31.154Z,100950.03
2023-03-20T15:23:16.024Z,100965.53
2023-03-20T15:26:01.196Z,100964.94
2023-03-20T15:28:47.168Z,100960.59
2023-03-20T15:31:38.476Z,100947.22
2023-03-20T15:34:27.772Z,100946.69
2023-03-20T15:37:15.895Z,100947.28
2023-03-20T15:40:11.334Z,100952.91
2023-03-20T15:43:03.113Z,100952.03
2023-03-20T15:45:48.048Z,100966.88
2023-03-20T15:48:33.484Z,100960.72
2023-03-20T15:51:27.603Z,100957.25
2023-03-20T15:54:17.874Z,100968.69
2023-03-20T15:57:03.977Z,100976.59
2023-03-20T15:59:49.334Z,100976.78
2023-03-20T16:02:36.960Z,100972.13
2023-03-20T16:05:26.081Z,100981.41
2023-03-20T16:08:22.318Z,100987.16
2023-03-20T16:11:15.985Z,101000.66
2023-03-20T16:14:01.516Z,100984.13
2023-03-20T16:16:49.454Z,100992.88
2023-03-20T16:19:34.802Z,100992.03
2023-03-20T16:22:31.251Z,100997.28
2023-03-20T16:25:18.422Z,101006.75
2023-03-20T16:28:05.315Z,101007.41
2023-03-20T16:30:50.876Z,100996.91
2023-03-20T16:33:38.981Z,100998.63
2023-03-20T16:36:33.742Z,100997.00
2023-03-20T16:39:21.934Z,100998.81
2023-03-20T16:42:22.601Z,100998.63
2023-03-20T16:45:35.922Z,101016.44
2023-03-20T16:48:41.946Z,101025.06
2023-03-20T16:51:30.140Z,101010.22
2023-03-20T16:54:20.362Z,101011.84
2023-03-20T16:57:17.772Z,101020.22
2023-03-20T17:00:48.498Z,101024.31
2023-03-20T17:03:53.258Z,101036.28
2023-03-20T17:06:46.016Z,101045.59
2023-03-20T17:09:31.712Z,101042.91
2023-03-20T17:12:18.482Z,101031.84
2023-03-20T17:15:03.991Z,101033.19
2023-03-20T17:17:49.190Z,101046.72
2023-03-20T17:20:34.750Z,101034.53
2023-03-20T17:23:22.388Z,101037.94
2023-03-20T17:26:11.483Z,101043.94
2023-03-20T17:28:56.865Z,101053.28
2023-03-20T17:31:42.115Z,101055.00
2023-03-20T17:34:27.430Z,101052.31
2023-03-20T17:37:17.217Z,101048.97
2023-03-20T17:40:03.137Z,101052.47
2023-03-20T17:42:48.649Z,101061.00
2023-03-20T17:45:33.867Z,101065.41
2023-03-20T17:48:21.071Z,101061.22
2023-03-20T17:51:07.897Z,101065.56
2023-03-20T17:53:53.367Z,101054.25
2023-03-20T17:56:38.220Z,101055.09
2023-03-20T17:59:23.513Z,101055.88
2023-03-20T18:02:08.940Z,101069.72
2023-03-20T18:04:54.030Z,101062.84
2023-03-20T18:07:39.427Z,101055.03
2023-03-20T18:10:28.485Z,101058.44
2023-03-20T18:13:13.801Z,101056.06
2023-03-20T18:15:59.250Z,101058.53
2023-03-20T18:18:44.625Z,101061.00
2023-03-20T18:21:30.162Z,101059.47
2023-03-20T18:24:17.338Z,101053.28
2023-03-20T18:27:02.648Z,101066.16
2023-03-20T18:29:47.938Z,101058.44
2023-03-20T18:32:33.166Z,101060.25
2023-03-20T18:35:18.700Z,101056.63
2023-03-20T18:38:04.423Z,101063.53
2023-03-20T18:40:49.580Z,101065.28
2023-03-20T18:43:34.653Z,101065.22
2023-03-20T18:46:22.208Z,101066.16
2023-03-20T18:49:15.837Z,101075.47
2023-03-20T18:52:00.694Z,101076.28
2023-03-20T18:54:45.625Z,101081.72
2023-03-20T18:57:30.995Z,101070.44
2023-03-20T19:00:24.743Z,101067.88
2023-03-20T19:03:11.225Z,101074.66
2023-03-20T19:05:58.334Z,101066.06
2023-03-20T19:08:45.176Z,101067.03
2023-03-20T19:11:30.331Z,101071.41
2023-03-20T19:14:18.911Z,101069.78
2023-03-20T19:17:04.166Z,101067.56
2023-03-20T19:19:49.110Z,101082.03
2023-03-20T19:22:34.160Z,101086.22
2023-03-20T19:25:19.035Z,101089.69
2023-03-20T19:28:05.660Z,101085.31
2023-03-20T19:30:54.075Z,101087.72
2023-03-20T19:33:45.644Z,101085.09
2023-03-20T19:36:33.818Z,101082.59
2023-03-20T19:39:20.727Z,101082.69
2023-03-20T19:42:19.882Z,101080.91
2023-03-20T19:45:11.450Z,101082.03
2023-03-20T19:47:57.384Z,101077.66
2023-03-20T19:50:51.182Z,101078.50
2023-03-20T19:53:37.551Z,101077.19
2023-03-20T19:56:23.681Z,101072.94
2023-03-20T19:59:08.653Z,101064.97
2023-03-20T20:01:56.654Z,101065.94
2023-03-20T20:04:43.740Z,101064.06
2023-03-20T20:08:09.044Z,101056.41
2023-03-20T20:10:54.663Z,101058.91
2023-03-20T20:14:03.788Z,101058.03
2023-03-20T20:16:47.605Z,101058.16
2023-03-20T20:19:35.834Z,101057.28
2023-03-20T20:22:26.168Z,101053.22
2023-03-20T20:25:13.721Z,101047.19
2023-03-20T20:27:58.696Z,101042.03
2023-03-20T20:30:49.511Z,101037.00
2023-03-20T20:33:34.761Z,101037.94
2023-03-20T20:37:08.021Z,101029.53
2023-03-20T20:39:25.666Z,101026.81
2023-03-20T20:42:11.046Z,101034.69
2023-03-20T20:44:56.691Z,101029.56
2023-03-20T20:47:44.061Z,101022.72
2023-03-20T20:50:31.363Z,101029.53
2023-03-20T20:53:16.402Z,101021.06
2023-03-20T20:56:01.724Z,101023.00
2023-03-20T20:58:46.780Z,101027.31
2023-03-20T21:01:32.219Z,101029.09
2023-03-20T21:04:23.575Z,101021.56
2023-03-20T21:07:13.442Z,101022.53
2023-03-20T21:09:58.890Z,101014.09
2023-03-20T21:12:58.042Z,101016.69
2023-03-20T21:15:44.446Z,101004.00
2023-03-20T21:18:30.179Z,101010.69
2023-03-20T21:21:15.936Z,101008.97
2023-03-20T21:24:01.853Z,101002.03
2023-03-20T21:26:46.927Z,101007.25
2023-03-20T21:29:32.515Z,101004.66
2023-03-20T21:32:20.538Z,101008.97
2023-03-20T21:35:06.450Z,101006.38
2023-03-20T21:40:56.782Z,101009.84
2023-03-20T21:43:47.876Z,101005.59
2023-03-20T21:50:31.147Z,101000.44
2023-03-20T21:53:40.328Z,101004.66
2023-03-20T21:56:53.936Z,101008.03
2023-03-20T21:59:50.440Z,101012.31
2023-03-20T22:02:12.278Z,101001.13
2023-03-20T22:05:48.391Z,100996.88
2023-03-20T22:12:01.665Z,100993.53
2023-03-20T22:27:34.935Z,100979.38
2023-03-20T22:33:58.437Z,100981.19
2023-03-20T22:36:46.847Z,100974.53
2023-03-20T22:42:48.972Z,100962.56
2023-03-20T22:45:19.657Z,100964.22
2023-03-20T22:48:12.837Z,100959.19
2023-03-20T22:50:58.506Z,100957.53
2023-03-20T22:53:43.569Z,100959.31
2023-03-20T22:56:28.924Z,100940.56
2023-03-20T22:59:14.216Z,100948.44
2023-03-20T23:01:59.645Z,100944.22
2023-03-20T23:04:47.508Z,100941.00
2023-03-20T23:07:32.485Z,100932.38
2023-03-20T23:10:18.030Z,100929.78
2023-03-20T23:13:03.490Z,100930.78
2023-03-20T23:15:49.643Z,100935.09
2023-03-20T23:18:34.936Z,100925.56
2023-03-20T23:21:19.789Z,100930.78
2023-03-20T23:24:05.531Z,100927.44
2023-03-20T23:26:50.698Z,100924.94
2023-03-20T23:29:36.054Z,100928.56
2023-03-20T23:32:21.502Z,100924.16
2023-03-20T23:35:08.299Z,100924.94
2023-03-20T23:37:53.763Z,100924.00
2023-03-20T23:40:39.598Z,100928.31
2023-03-20T23:43:25.098Z,100924.16
2023-03-20T23:46:10.668Z,100928.50
2023-03-20T23:48:55.756Z,100925.31
2023-03-20T23:51:40.794Z,100921.91
2023-03-20T23:54:25.856Z,100914.25
2023-03-20T23:57:10.888Z,100909.31
2023-03-20T23:59:56.297Z,100909.25
